Time;durP1;ratioP1;P1;durP2;ratioP2;P2;SDS_P1;SDS_P2;PMS_P1;PMS_P2;Temp;Humidity;BMP_temperature;BMP_pressure;BME280_temperature;BME280_humidity;BME280_pressure;Samples;Min_cycle;Max_cycle;Signal;HPM_P1;HPM_P2
2023/01/10 00:00:37;;;;;;;;;;;25.30;99.90;;;;;;5016090;28;19917;-65
2023/01/10 00:03:05;;;;;;;;;;;25.20;99.90;;;;;;5016408;28;19911;-69
2023/01/10 00:05:32;;;;;;;;;;;25.50;99.90;;;;;;5016228;28;19925;-70
2023/01/10 00:08:00;;;;;;;;;;;25.40;99.90;;;;;;5016273;28;19959;-68
2023/01/10 00:10:27;;;;;;;;;;;25.20;99.90;;;;;;5015998;28;19973;-66
2023/01/10 00:15:39;;;;;;;;;;;25.40;99.90;;;;;;5015611;28;20280;-67
2023/01/10 00:18:05;;;;;;;;;;;25.60;99.90;;;;;;5016205;28;19909;-64
2023/01/10 00:20:32;;;;;;;;;;;25.40;99.90;;;;;;5015716;28;20039;-72
2023/01/10 00:22:59;;;;;;;;;;;25.40;99.90;;;;;;5014749;28;20372;-68
2023/01/10 00:25:25;;;;;;;;;;;25.50;99.90;;;;;;5015842;28;19916;-72
2023/01/10 00:28:00;;;;;;;;;;;25.80;99.90;;;;;;5015851;28;20292;-71
2023/01/10 00:30:27;;;;;;;;;;;26.00;99.90;;;;;;5015774;28;19909;-68
2023/01/10 00:32:55;;;;;;;;;;;26.10;99.90;;;;;;5015828;28;19909;-65
2023/01/10 00:35:22;;;;;;;;;;;26.10;99.90;;;;;;5015607;28;19945;-72
2023/01/10 00:37:50;;;;;;;;;;;25.80;99.90;;;;;;5015644;28;19968;-68
2023/01/10 00:40:17;;;;;;;;;;;25.70;99.90;;;;;;5015344;28;20369;-68
2023/01/10 00:45:29;;;;;;;;;;;25.10;99.90;;;;;;5015907;28;19921;-65
2023/01/10 00:47:56;;;;;;;;;;;25.20;99.90;;;;;;5015580;28;20360;-69
2023/01/10 00:50:22;;;;;;;;;;;25.20;99.90;;;;;;5015425;28;19955;-70
2023/01/10 00:52:49;;;;;;;;;;;25.20;99.90;;;;;;5014852;28;20287;-66
2023/01/10 00:55:16;;;;;;;;;;;25.10;99.90;;;;;;5015360;28;19909;-66
2023/01/10 00:57:42;;;;;;;;;;;25.20;99.90;;;;;;5015378;28;20016;-70
2023/01/10 01:00:10;;;;;;;;;;;25.40;99.90;;;;;;5015082;28;19976;-71
2023/01/10 01:02:37;;;;;;;;;;;25.70;99.90;;;;;;5015330;28;19909;-70
2023/01/10 01:05:04;;;;;;;;;;;25.40;99.90;;;;;;5015394;28;20284;-67
2023/01/10 01:07:31;;;;;;;;;;;25.40;99.90;;;;;;5015167;28;19909;-72
2023/01/10 01:12:42;;;;;;;;;;;25.00;99.90;;;;;;5015148;28;19968;-68
2023/01/10 01:15:09;;;;;;;;;;;25.30;99.90;;;;;;5015079;28;19943;-65
2023/01/10 01:17:36;;;;;;;;;;;25.90;99.90;;;;;;5014846;28;19909;-65
2023/01/10 01:20:02;;;;;;;;;;;26.30;99.90;;;;;;5014904;28;19921;-65
2023/01/10 01:22:29;;;;;;;;;;;26.00;99.90;;;;;;5014878;28;19913;-65
2023/01/10 01:24:56;;;;;;;;;;;26.40;99.90;;;;;;5014903;28;19916;-64
2023/01/10 01:27:22;;;;;;;;;;;27.00;99.90;;;;;;5014269;28;19909;-66
2023/01/10 01:29:49;;;;;;;;;;;27.30;99.90;;;;;;5014785;28;19919;-67
2023/01/10 01:32:16;;;;;;;;;;;27.30;99.90;;;;;;5014297;28;19909;-66
2023/01/10 01:34:42;;;;;;;;;;;27.00;99.90;;;;;;5014555;28;19988;-66
2023/01/10 01:37:09;;;;;;;;;;;26.90;99.90;;;;;;5014497;28;19925;-66
2023/01/10 01:39:36;;;;;;;;;;;26.80;99.90;;;;;;5014548;28;20360;-66
2023/01/10 01:42:03;;;;;;;;;;;26.80;99.90;;;;;;5014350;28;20024;-65
2023/01/10 01:44:32;;;;;;;;;;;26.60;99.90;;;;;;5014247;28;19909;-64
2023/01/10 01:47:05;;;;;;;;;;;26.00;99.90;;;;;;5014236;28;20511;-64
2023/01/10 01:49:33;;;;;;;;;;;25.80;99.90;;;;;;5014099;28;19913;-65
2023/01/10 01:52:03;;;;;;;;;;;25.90;99.90;;;;;;5013982;28;19909;-65
2023/01/10 01:54:30;;;;;;;;;;;26.10;99.90;;;;;;5014538;28;20004;-67
2023/01/10 01:57:00;;;;;;;;;;;26.30;99.90;;;;;;5014599;28;19918;-65
2023/01/10 01:59:32;;;;;;;;;;;26.20;99.90;;;;;;5014231;28;19941;-65
2023/01/10 02:02:02;;;;;;;;;;;26.10;99.90;;;;;;5014106;28;19914;-63
2023/01/10 02:04:31;;;;;;;;;;;26.10;99.90;;;;;;5013296;28;19914;-65
2023/01/10 02:06:58;;;;;;;;;;;25.60;99.90;;;;;;5014509;28;19925;-65
2023/01/10 02:09:28;;;;;;;;;;;25.50;99.90;;;;;;5014290;28;19909;-64
2023/01/10 02:11:55;;;;;;;;;;;25.40;99.90;;;;;;5013876;28;19910;-65
2023/01/10 02:14:23;;;;;;;;;;;25.10;99.90;;;;;;5013911;28;19955;-63
2023/01/10 02:16:50;;;;;;;;;;;25.20;99.90;;;;;;5014269;28;19910;-68
2023/01/10 02:19:32;;;;;;;;;;;25.10;99.90;;;;;;5013575;28;19924;-63
2023/01/10 02:21:58;;;;;;;;;;;25.00;99.90;;;;;;5013656;28;20000;-64
2023/01/10 02:24:31;;;;;;;;;;;25.00;99.90;;;;;;5013810;28;19955;-64
2023/01/10 02:27:06;;;;;;;;;;;25.20;99.90;;;;;;5013690;28;20281;-64
2023/01/10 02:29:50;;;;;;;;;;;25.20;99.90;;;;;;5013476;28;19959;-64
2023/01/10 02:32:24;;;;;;;;;;;24.60;99.90;;;;;;5013320;28;19963;-64
2023/01/10 02:34:51;;;;;;;;;;;24.70;99.90;;;;;;5013382;28;20268;-65
2023/01/10 02:37:31;;;;;;;;;;;25.00;99.90;;;;;;5013108;28;19922;-66
2023/01/10 02:40:03;;;;;;;;;;;25.30;99.90;;;;;;5013189;28;20253;-65
2023/01/10 02:42:44;;;;;;;;;;;25.30;99.90;;;;;;5013440;28;19909;-64
2023/01/10 02:45:18;;;;;;;;;;;25.20;99.90;;;;;;5013371;28;20285;-65
2023/01/10 02:47:45;;;;;;;;;;;25.30;99.90;;;;;;5013256;28;19929;-65
2023/01/10 02:50:29;;;;;;;;;;;25.40;99.90;;;;;;5012821;28;19910;-64
2023/01/10 02:53:02;;;;;;;;;;;25.30;99.90;;;;;;5013183;28;19916;-64
2023/01/10 02:55:51;;;;;;;;;;;25.20;99.90;;;;;;5012839;28;19918;-67
2023/01/10 02:58:39;;;;;;;;;;;25.20;99.90;;;;;;5002722;28;20363;-64
2023/01/10 03:01:20;;;;;;;;;;;25.30;99.90;;;;;;5011428;28;20224;-66
2023/01/10 03:04:09;;;;;;;;;;;25.50;99.90;;;;;;5013082;28;19996;-65
2023/01/10 03:06:49;;;;;;;;;;;25.30;99.90;;;;;;5009972;28;19910;-65
2023/01/10 03:09:21;;;;;;;;;;;25.30;99.90;;;;;;5012803;28;19956;-66
2023/01/10 03:11:49;;;;;;;;;;;25.40;99.90;;;;;;5012452;28;19909;-65
2023/01/10 03:14:16;;;;;;;;;;;25.20;99.90;;;;;;5013130;28;19913;-65
2023/01/10 03:16:45;;;;;;;;;;;25.00;99.90;;;;;;5016623;28;19945;-65
2023/01/10 03:19:13;;;;;;;;;;;24.90;99.90;;;;;;5017037;28;19965;-64
2023/01/10 03:21:40;;;;;;;;;;;25.00;99.90;;;;;;5016768;28;19937;-64
2023/01/10 03:24:17;;;;;;;;;;;25.20;99.90;;;;;;5017388;28;19931;-66
2023/01/10 03:26:51;;;;;;;;;;;25.20;99.90;;;;;;5016755;28;20360;-65
2023/01/10 03:29:40;;;;;;;;;;;25.30;99.90;;;;;;5016705;28;20004;-65
2023/01/10 03:32:10;;;;;;;;;;;25.40;99.90;;;;;;5013423;28;19910;-65
2023/01/10 03:34:37;;;;;;;;;;;25.40;99.90;;;;;;5016817;28;19910;-66
2023/01/10 03:37:09;;;;;;;;;;;25.30;99.90;;;;;;5016652;28;20291;-65
2023/01/10 03:40:14;;;;;;;;;;;25.30;99.90;;;;;;5016701;28;20344;-68
2023/01/10 03:45:33;;;;;;;;;;;25.10;99.90;;;;;;4995082;28;19988;-65
2023/01/10 03:48:02;;;;;;;;;;;25.40;99.90;;;;;;5009077;28;19909;-65
2023/01/10 03:50:29;;;;;;;;;;;25.30;99.90;;;;;;5015953;28;19997;-65
2023/01/10 03:52:56;;;;;;;;;;;25.30;99.90;;;;;;5016197;28;19909;-65
2023/01/10 03:55:26;;;;;;;;;;;25.20;99.90;;;;;;5016146;28;19909;-65
2023/01/10 03:57:53;;;;;;;;;;;25.40;99.90;;;;;;5016048;28;19914;-64
2023/01/10 04:00:20;;;;;;;;;;;25.60;99.90;;;;;;5015786;28;19917;-64
2023/01/10 04:02:46;;;;;;;;;;;25.40;99.90;;;;;;5016506;28;19932;-65
2023/01/10 04:05:13;;;;;;;;;;;25.30;99.90;;;;;;5016146;28;20360;-67
2023/01/10 04:07:40;;;;;;;;;;;25.20;99.90;;;;;;5015950;28;19917;-64
2023/01/10 04:10:07;;;;;;;;;;;25.20;99.90;;;;;;5015979;28;19909;-63
2023/01/10 04:12:34;;;;;;;;;;;25.30;99.90;;;;;;5016299;28;20009;-65
2023/01/10 04:15:01;;;;;;;;;;;25.10;99.90;;;;;;5016470;28;20402;-65
2023/01/10 04:17:28;;;;;;;;;;;25.20;99.90;;;;;;5015857;28;19909;-64
2023/01/10 04:19:55;;;;;;;;;;;25.20;99.90;;;;;;5014355;28;19956;-64
2023/01/10 04:22:21;;;;;;;;;;;25.20;99.90;;;;;;5015971;28;19909;-64
2023/01/10 04:24:50;;;;;;;;;;;25.20;99.90;;;;;;5016264;28;20241;-65
2023/01/10 04:27:17;;;;;;;;;;;25.30;99.90;;;;;;5014809;28;19916;-64
2023/01/10 04:29:44;;;;;;;;;;;25.40;99.90;;;;;;5015849;28;19909;-64
2023/01/10 04:32:11;;;;;;;;;;;25.40;99.90;;;;;;5015419;28;20016;-65
2023/01/10 04:34:38;;;;;;;;;;;25.30;99.90;;;;;;5015872;28;19909;-66
2023/01/10 04:37:04;;;;;;;;;;;25.30;99.90;;;;;;5015667;28;20276;-65
2023/01/10 04:39:31;;;;;;;;;;;25.40;99.90;;;;;;5015533;28;20336;-65
2023/01/10 04:41:58;;;;;;;;;;;25.40;99.90;;;;;;5015279;28;19913;-64
2023/01/10 04:44:24;;;;;;;;;;;25.20;99.90;;;;;;5015932;28;20043;-64
2023/01/10 04:46:51;;;;;;;;;;;25.30;99.90;;;;;;5016005;28;19971;-65
2023/01/10 04:49:17;;;;;;;;;;;25.40;99.90;;;;;;5015658;28;19909;-66
2023/01/10 04:51:44;;;;;;;;;;;25.60;99.90;;;;;;5015659;28;19910;-66
2023/01/10 04:54:11;;;;;;;;;;;25.70;99.90;;;;;;5015451;28;19917;-66
2023/01/10 04:56:38;;;;;;;;;;;25.70;99.90;;;;;;5015641;28;20047;-65
2023/01/10 04:59:05;;;;;;;;;;;25.40;99.90;;;;;;5015739;28;20008;-65
2023/01/10 05:01:34;;;;;;;;;;;25.50;99.90;;;;;;5015286;28;19909;-66
2023/01/10 05:04:02;;;;;;;;;;;25.20;99.90;;;;;;5016025;28;19971;-66
2023/01/10 05:06:28;;;;;;;;;;;25.10;99.90;;;;;;5015838;28;20454;-65
2023/01/10 05:08:55;;;;;;;;;;;25.20;99.90;;;;;;5016180;28;20386;-65
2023/01/10 05:11:22;;;;;;;;;;;25.50;99.90;;;;;;5014932;28;20375;-65
2023/01/10 05:13:48;;;;;;;;;;;25.20;99.90;;;;;;5015812;28;20012;-65
2023/01/10 05:16:16;;;;;;;;;;;25.30;99.90;;;;;;5015660;28;20276;-66
2023/01/10 05:18:42;;;;;;;;;;;24.90;99.90;;;;;;5015385;28;19913;-65
2023/01/10 05:21:10;;;;;;;;;;;24.80;99.90;;;;;;5015058;28;19918;-67
2023/01/10 05:23:37;;;;;;;;;;;24.70;99.90;;;;;;5015209;28;19910;-66
2023/01/10 05:26:09;;;;;;;;;;;24.80;99.90;;;;;;5015160;28;19920;-66
2023/01/10 05:28:36;;;;;;;;;;;24.80;99.90;;;;;;5015188;28;19971;-66
2023/01/10 05:31:04;;;;;;;;;;;24.70;99.90;;;;;;5015002;28;19913;-64
2023/01/10 05:33:31;;;;;;;;;;;24.50;99.90;;;;;;5014923;28;19910;-65
2023/01/10 05:36:00;;;;;;;;;;;24.60;99.90;;;;;;5015307;28;20024;-65
2023/01/10 05:38:28;;;;;;;;;;;24.60;99.90;;;;;;5014971;28;20055;-65
2023/01/10 05:40:55;;;;;;;;;;;24.60;99.90;;;;;;5014634;28;19919;-64
2023/01/10 05:43:22;;;;;;;;;;;24.60;99.90;;;;;;5014783;28;19913;-65
2023/01/10 05:45:49;;;;;;;;;;;24.60;99.90;;;;;;5014921;28;19916;-65
2023/01/10 05:48:16;;;;;;;;;;;24.60;99.90;;;;;;5015104;28;19917;-66
2023/01/10 05:50:42;;;;;;;;;;;24.40;99.90;;;;;;5014006;28;20000;-65
2023/01/10 05:53:09;;;;;;;;;;;24.30;99.90;;;;;;5013085;28;19922;-64
2023/01/10 05:55:36;;;;;;;;;;;24.30;99.90;;;;;;5013032;28;19910;-65
2023/01/10 05:58:03;;;;;;;;;;;24.30;99.90;;;;;;5012931;28;19968;-66
2023/01/10 06:00:29;;;;;;;;;;;24.30;99.90;;;;;;5014140;28;19926;-65
2023/01/10 06:02:56;;;;;;;;;;;24.40;99.90;;;;;;5014131;28;20336;-71
2023/01/10 06:05:23;;;;;;;;;;;24.60;99.90;;;;;;5026974;28;19919;-66
2023/01/10 06:07:50;;;;;;;;;;;24.80;99.90;;;;;;5014771;28;19936;-66
2023/01/10 06:10:17;;;;;;;;;;;24.70;99.90;;;;;;5012660;28;19959;-65
2023/01/10 06:12:44;;;;;;;;;;;24.60;99.90;;;;;;5013075;28;19909;-70
2023/01/10 06:15:10;;;;;;;;;;;24.50;99.90;;;;;;5014448;28;19911;-65
2023/01/10 06:17:37;;;;;;;;;;;24.40;99.90;;;;;;5020067;28;19921;-76
2023/01/10 06:20:04;;;;;;;;;;;24.30;99.90;;;;;;5017830;28;19924;-74
2023/01/10 06:22:31;;;;;;;;;;;24.30;99.90;;;;;;5014754;28;19937;-70
2023/01/10 06:24:57;;;;;;;;;;;24.30;99.90;;;;;;5014399;28;19996;-67
2023/01/10 06:27:24;;;;;;;;;;;24.10;99.90;;;;;;5013020;28;19959;-76
2023/01/10 06:29:50;;;;;;;;;;;24.10;99.90;;;;;;5013367;28;19921;-72
2023/01/10 06:32:17;;;;;;;;;;;24.20;99.90;;;;;;5011609;28;19913;-69
2023/01/10 06:34:44;;;;;;;;;;;24.20;99.90;;;;;;5013801;28;19980;-65
2023/01/10 06:37:10;;;;;;;;;;;24.10;99.90;;;;;;5012483;28;19949;-66
2023/01/10 06:39:38;;;;;;;;;;;24.00;99.90;;;;;;5012145;28;20360;-67
2023/01/10 06:42:05;;;;;;;;;;;24.00;99.90;;;;;;5012759;28;19944;-68
2023/01/10 06:44:31;;;;;;;;;;;24.20;99.90;;;;;;5014787;28;19910;-66
2023/01/10 06:46:58;;;;;;;;;;;24.10;99.90;;;;;;5012426;28;19989;-67
2023/01/10 06:49:24;;;;;;;;;;;24.20;99.90;;;;;;5012610;28;20005;-73
2023/01/10 06:51:51;;;;;;;;;;;24.10;99.90;;;;;;5014164;28;19945;-68
2023/01/10 06:54:18;;;;;;;;;;;24.10;99.90;;;;;;5014164;28;19914;-69
2023/01/10 06:56:46;;;;;;;;;;;24.00;99.90;;;;;;5014047;28;19909;-74
2023/01/10 06:59:13;;;;;;;;;;;23.90;99.90;;;;;;5012832;28;19913;-68
2023/01/10 07:01:39;;;;;;;;;;;23.90;99.90;;;;;;5010272;28;19925;-72
2023/01/10 07:04:06;;;;;;;;;;;23.90;99.90;;;;;;5007204;28;19914;-74
2023/01/10 07:06:36;;;;;;;;;;;23.90;99.90;;;;;;5006475;28;19914;-69
2023/01/10 07:09:03;;;;;;;;;;;23.80;99.90;;;;;;5006463;28;19914;-70
2023/01/10 07:11:30;;;;;;;;;;;23.70;99.90;;;;;;5005947;28;19944;-73
2023/01/10 07:13:58;;;;;;;;;;;23.70;99.90;;;;;;5006767;28;19921;-72
2023/01/10 07:16:25;;;;;;;;;;;23.80;99.90;;;;;;5007365;28;20004;-68
2023/01/10 07:18:53;;;;;;;;;;;23.80;99.90;;;;;;5007232;28;20556;-73
2023/01/10 07:21:21;;;;;;;;;;;23.60;99.90;;;;;;5006747;28;20410;-72
2023/01/10 07:23:51;;;;;;;;;;;23.60;99.90;;;;;;5007824;28;19931;-69
2023/01/10 07:26:18;;;;;;;;;;;23.60;99.90;;;;;;5011542;28;20018;-70
2023/01/10 07:28:51;;;;;;;;;;;23.60;99.90;;;;;;5015678;28;19913;-65
2023/01/10 07:31:19;;;;;;;;;;;23.60;99.90;;;;;;5011200;28;19917;-69
2023/01/10 07:33:45;;;;;;;;;;;23.60;99.90;;;;;;5006177;28;19964;-70
2023/01/10 07:36:12;;;;;;;;;;;23.50;99.90;;;;;;5006456;28;19932;-71
2023/01/10 07:38:39;;;;;;;;;;;23.50;99.90;;;;;;5007175;28;19917;-72
2023/01/10 07:41:06;;;;;;;;;;;23.40;99.90;;;;;;5006173;28;19936;-73
2023/01/10 07:43:33;;;;;;;;;;;23.40;99.90;;;;;;5007211;28;19920;-74
2023/01/10 07:46:00;;;;;;;;;;;23.40;99.90;;;;;;5006540;28;20000;-68
2023/01/10 07:48:26;;;;;;;;;;;23.30;99.90;;;;;;5007585;28;19913;-75
2023/01/10 07:50:57;;;;;;;;;;;23.20;99.90;;;;;;5007355;28;19913;-73
2023/01/10 07:53:25;;;;;;;;;;;23.10;99.90;;;;;;5006810;28;20017;-73
2023/01/10 07:55:52;;;;;;;;;;;23.20;99.90;;;;;;5006571;28;20411;-73
2023/01/10 07:58:19;;;;;;;;;;;23.30;99.90;;;;;;5006463;28;19960;-75
2023/01/10 08:00:48;;;;;;;;;;;23.20;99.90;;;;;;5006461;28;19928;-74
2023/01/10 08:03:14;;;;;;;;;;;23.20;99.90;;;;;;5010867;28;19913;-73
2023/01/10 08:05:41;;;;;;;;;;;23.20;99.90;;;;;;5009932;28;20390;-75
2023/01/10 08:08:08;;;;;;;;;;;23.10;99.90;;;;;;5007989;28;19921;-75
2023/01/10 08:10:36;;;;;;;;;;;23.00;99.90;;;;;;5008007;28;20510;-72
2023/01/10 08:13:02;;;;;;;;;;;22.90;99.90;;;;;;5008911;28;19913;-74
2023/01/10 08:15:29;;;;;;;;;;;22.80;99.90;;;;;;5008055;28;19917;-77
2023/01/10 08:18:00;;;;;;;;;;;22.80;99.90;;;;;;5009996;28;19914;-76
2023/01/10 08:20:26;;;;;;;;;;;22.80;99.90;;;;;;5007962;28;20435;-73
2023/01/10 08:22:53;;;;;;;;;;;22.80;99.90;;;;;;5009542;28;19925;-75
2023/01/10 08:25:20;;;;;;;;;;;22.80;99.90;;;;;;5008840;28;20346;-75
2023/01/10 08:27:46;;;;;;;;;;;22.70;99.90;;;;;;5008835;28;19917;-77
2023/01/10 08:30:13;;;;;;;;;;;22.60;99.90;;;;;;5013279;28;19914;-76
2023/01/10 08:32:40;;;;;;;;;;;22.50;99.90;;;;;;5016166;28;19976;-76
2023/01/10 08:35:07;;;;;;;;;;;22.60;99.90;;;;;;5016094;28;19913;-76
2023/01/10 08:37:34;;;;;;;;;;;22.60;99.90;;;;;;5015772;28;19922;-75
2023/01/10 08:40:01;;;;;;;;;;;22.50;99.90;;;;;;5015285;28;20345;-76
2023/01/10 08:42:27;;;;;;;;;;;22.50;99.90;;;;;;5015988;28;19917;-76
2023/01/10 08:44:54;;;;;;;;;;;22.50;99.90;;;;;;5015743;28;19909;-76
2023/01/10 08:47:21;;;;;;;;;;;22.40;99.90;;;;;;5015662;28;19963;-77
2023/01/10 08:49:48;;;;;;;;;;;22.30;99.90;;;;;;5015683;28;19917;-76
2023/01/10 08:52:16;;;;;;;;;;;22.30;99.90;;;;;;5015825;28;19956;-76
2023/01/10 08:54:43;;;;;;;;;;;22.20;99.90;;;;;;5015741;28;19917;-76
2023/01/10 08:57:09;;;;;;;;;;;22.30;99.90;;;;;;5015725;28;19960;-77
2023/01/10 08:59:37;;;;;;;;;;;22.30;99.90;;;;;;5015180;28;19975;-76
2023/01/10 09:02:03;;;;;;;;;;;22.30;99.90;;;;;;5015580;28;19942;-77
2023/01/10 09:04:30;;;;;;;;;;;22.30;99.90;;;;;;5015903;28;19909;-77
2023/01/10 09:07:00;;;;;;;;;;;22.20;99.90;;;;;;5016026;28;19909;-75
2023/01/10 09:09:27;;;;;;;;;;;22.20;99.90;;;;;;5015053;28;20352;-76
2023/01/10 09:11:53;;;;;;;;;;;22.20;99.90;;;;;;5015308;28;19914;-76
2023/01/10 09:14:20;;;;;;;;;;;22.20;99.90;;;;;;5014868;28;20000;-75
2023/01/10 09:16:50;;;;;;;;;;;22.20;99.90;;;;;;5015450;28;19918;-77
2023/01/10 09:19:17;;;;;;;;;;;22.20;99.90;;;;;;5015024;28;20597;-75
2023/01/10 09:21:44;;;;;;;;;;;22.20;99.90;;;;;;5015955;28;19919;-76
2023/01/10 09:24:10;;;;;;;;;;;22.20;99.90;;;;;;5017258;28;19917;-77
2023/01/10 09:26:37;;;;;;;;;;;22.20;99.90;;;;;;5013061;28;19953;-76
2023/01/10 09:29:03;;;;;;;;;;;22.20;99.90;;;;;;5012861;28;19921;-77
2023/01/10 09:31:30;;;;;;;;;;;22.10;99.90;;;;;;5012257;28;19983;-72
2023/01/10 09:33:57;;;;;;;;;;;22.10;99.90;;;;;;5012399;28;19913;-69
2023/01/10 09:36:23;;;;;;;;;;;22.00;99.90;;;;;;5012429;28;20356;-72
2023/01/10 09:38:50;;;;;;;;;;;22.00;99.90;;;;;;5012475;28;19995;-69
2023/01/10 09:41:37;;;;;;;;;;;22.10;99.90;;;;;;5012091;28;19979;-75
2023/01/10 09:44:05;;;;;;;;;;;22.00;99.90;;;;;;5012282;28;19959;-74
2023/01/10 09:46:31;;;;;;;;;;;22.00;99.90;;;;;;5012503;28;20378;-73
2023/01/10 09:49:07;;;;;;;;;;;21.90;99.90;;;;;;5012823;28;19920;-72
2023/01/10 09:51:39;;;;;;;;;;;21.80;99.90;;;;;;5012553;28;19967;-76
2023/01/10 09:54:12;;;;;;;;;;;21.80;99.90;;;;;;5013422;28;19909;-71
2023/01/10 09:56:39;;;;;;;;;;;21.90;99.90;;;;;;5013449;28;19914;-72
2023/01/10 09:59:11;;;;;;;;;;;21.70;99.90;;;;;;5012711;28;19921;-76
2023/01/10 10:01:38;;;;;;;;;;;21.80;99.90;;;;;;5012914;28;19917;-68
2023/01/10 10:04:15;;;;;;;;;;;21.80;99.90;;;;;;5012912;28;19916;-71
2023/01/10 10:06:42;;;;;;;;;;;21.90;99.90;;;;;;5013138;28;20004;-66
2023/01/10 10:09:12;;;;;;;;;;;21.90;99.90;;;;;;5013228;28;20368;-65
2023/01/10 10:12:05;;;;;;;;;;;21.90;99.90;;;;;;5010174;28;19971;-70
2023/01/10 10:14:49;;;;;;;;;;;21.90;99.90;;;;;;4999738;28;20356;-71
2023/01/10 10:17:35;;;;;;;;;;;21.90;99.90;;;;;;5008385;28;20641;-73
2023/01/10 10:20:20;;;;;;;;;;;21.90;99.90;;;;;;5008225;28;20335;-72
2023/01/10 10:22:46;;;;;;;;;;;21.90;99.90;;;;;;5008127;28;19914;-73
2023/01/10 10:25:21;;;;;;;;;;;21.80;99.90;;;;;;5005824;28;20399;-66
2023/01/10 10:28:06;;;;;;;;;;;21.70;99.90;;;;;;5006252;28;19920;-70
2023/01/10 10:30:44;;;;;;;;;;;21.70;99.90;;;;;;5005568;28;19913;-69
2023/01/10 10:33:19;;;;;;;;;;;21.80;99.90;;;;;;5006113;28;20048;-68
2023/01/10 10:35:51;;;;;;;;;;;21.80;99.90;;;;;;5005838;28;19913;-71
2023/01/10 10:38:22;;;;;;;;;;;21.70;99.90;;;;;;5006163;28;19921;-66
2023/01/10 10:40:48;;;;;;;;;;;21.70;99.90;;;;;;5005770;28;19921;-68
2023/01/10 10:43:20;;;;;;;;;;;21.60;99.90;;;;;;5006384;28;19952;-73
2023/01/10 10:45:49;;;;;;;;;;;21.70;99.90;;;;;;5006779;28;20032;-71
2023/01/10 10:48:28;;;;;;;;;;;21.70;99.90;;;;;;5006321;28;19920;-70
2023/01/10 10:51:13;;;;;;;;;;;21.60;99.90;;;;;;5006262;28;19958;-75
2023/01/10 10:53:40;;;;;;;;;;;21.60;99.90;;;;;;5006212;28;19945;-67
2023/01/10 10:56:10;;;;;;;;;;;21.60;99.90;;;;;;5005770;28;19920;-69
2023/01/10 10:58:38;;;;;;;;;;;21.60;99.90;;;;;;5006721;28;19921;-68
2023/01/10 11:01:05;;;;;;;;;;;21.60;99.90;;;;;;5006036;28;19921;-71
2023/01/10 11:03:49;;;;;;;;;;;21.60;99.90;;;;;;5007010;28;20725;-69
2023/01/10 11:06:18;;;;;;;;;;;21.60;99.90;;;;;;5006044;28;20336;-72
2023/01/10 11:08:46;;;;;;;;;;;21.60;99.90;;;;;;5006119;28;19983;-68
2023/01/10 11:11:29;;;;;;;;;;;21.70;99.90;;;;;;5006588;28;19921;-68
2023/01/10 11:13:57;;;;;;;;;;;21.70;99.90;;;;;;5007137;28;19920;-75
2023/01/10 11:16:26;;;;;;;;;;;21.80;99.90;;;;;;5006863;28;20333;-74
2023/01/10 11:19:11;;;;;;;;;;;21.80;99.90;;;;;;5005091;28;19932;-69
2023/01/10 11:21:39;;;;;;;;;;;21.80;99.90;;;;;;5007507;28;19918;-70
2023/01/10 11:24:19;;;;;;;;;;;21.80;99.90;;;;;;5006857;28;20399;-73
2023/01/10 11:26:46;;;;;;;;;;;21.80;99.90;;;;;;5007042;28;19914;-71
2023/01/10 11:29:15;;;;;;;;;;;21.80;99.90;;;;;;5007486;28;19914;-68
2023/01/10 11:31:42;;;;;;;;;;;21.80;99.90;;;;;;5007206;28;19914;-74
2023/01/10 11:34:23;;;;;;;;;;;21.80;99.90;;;;;;5007165;28;19918;-73
2023/01/10 11:37:00;;;;;;;;;;;21.70;99.90;;;;;;5009843;28;20459;-71
2023/01/10 11:39:28;;;;;;;;;;;21.70;99.90;;;;;;5010647;28;19932;-69
2023/01/10 11:41:57;;;;;;;;;;;21.80;99.90;;;;;;5014509;28;19964;-70
2023/01/10 11:44:28;;;;;;;;;;;21.80;99.90;;;;;;5013096;28;20326;-73
2023/01/10 11:47:05;;;;;;;;;;;21.80;99.90;;;;;;5023343;28;19910;-71
2023/01/10 11:49:39;;;;;;;;;;;21.80;99.90;;;;;;5019118;28;20363;-74
2023/01/10 11:52:12;;;;;;;;;;;21.80;99.90;;;;;;5019481;28;19910;-75
2023/01/10 11:54:40;;;;;;;;;;;21.80;99.90;;;;;;5020824;28;19920;-74
2023/01/10 11:57:09;;;;;;;;;;;21.80;99.90;;;;;;5024015;28;19959;-67
2023/01/10 11:59:37;;;;;;;;;;;21.80;99.90;;;;;;5029517;28;19917;-73
2023/01/10 12:02:04;;;;;;;;;;;21.80;99.90;;;;;;5028066;28;19948;-75
2023/01/10 12:04:33;;;;;;;;;;;21.80;99.90;;;;;;5020674;28;19915;-76
2023/01/10 12:07:06;;;;;;;;;;;21.80;99.90;;;;;;5020562;28;20356;-69
2023/01/10 12:09:41;;;;;;;;;;;21.80;99.90;;;;;;5024667;28;19909;-70
2023/01/10 12:12:24;;;;;;;;;;;21.80;99.90;;;;;;5034861;28;19912;-70
2023/01/10 12:14:51;;;;;;;;;;;21.90;99.90;;;;;;5032339;28;19916;-71
2023/01/10 12:17:25;;;;;;;;;;;21.90;99.90;;;;;;5033311;28;19921;-67
2023/01/10 12:19:54;;;;;;;;;;;21.90;99.90;;;;;;5034700;28;19922;-67
2023/01/10 12:22:23;;;;;;;;;;;21.90;99.90;;;;;;5035038;28;19909;-69
2023/01/10 12:24:51;;;;;;;;;;;21.90;99.90;;;;;;5034772;28;19914;-70
2023/01/10 12:27:19;;;;;;;;;;;21.90;99.90;;;;;;5031437;28;19905;-73
2023/01/10 12:29:49;;;;;;;;;;;21.90;99.90;;;;;;5033626;28;19909;-70
2023/01/10 12:32:21;;;;;;;;;;;21.90;99.90;;;;;;5033073;28;19901;-73
2023/01/10 12:34:59;;;;;;;;;;;21.90;99.90;;;;;;5032369;28;19909;-77
2023/01/10 12:37:39;;;;;;;;;;;21.90;99.90;;;;;;5026084;28;19961;-77
2023/01/10 12:40:29;;;;;;;;;;;21.90;99.90;;;;;;5024528;28;19925;-75
2023/01/10 12:46:09;;;;;;;;;;;21.90;99.90;;;;;;5021454;28;19916;-73
2023/01/10 12:48:36;;;;;;;;;;;21.90;99.90;;;;;;5020135;28;19917;-74
2023/01/10 12:51:07;;;;;;;;;;;22.00;99.90;;;;;;5022441;28;19909;-75
2023/01/10 12:53:33;;;;;;;;;;;22.00;99.90;;;;;;5033935;28;19945;-72
2023/01/10 12:56:03;;;;;;;;;;;22.00;99.90;;;;;;5028519;28;19967;-76
2023/01/10 12:59:05;;;;;;;;;;;22.00;99.90;;;;;;5020432;28;19910;-75
2023/01/10 13:01:39;;;;;;;;;;;21.90;99.90;;;;;;4997769;28;19925;-76
2023/01/10 13:04:08;;;;;;;;;;;21.90;99.90;;;;;;5016097;28;19909;-76
2023/01/10 13:06:36;;;;;;;;;;;21.90;99.90;;;;;;5019763;28;19937;-76
2023/01/10 13:09:06;;;;;;;;;;;21.90;99.90;;;;;;5019341;28;19909;-69
2023/01/10 13:11:35;;;;;;;;;;;21.90;99.90;;;;;;5018964;28;20040;-75
2023/01/10 13:14:05;;;;;;;;;;;21.90;99.90;;;;;;5019109;28;20360;-75
2023/01/10 13:16:50;;;;;;;;;;;21.90;99.90;;;;;;5020988;28;19913;-77
2023/01/10 13:19:20;;;;;;;;;;;21.90;99.90;;;;;;5017048;28;19925;-72
2023/01/10 13:21:47;;;;;;;;;;;21.90;99.90;;;;;;5026600;28;19931;-70
2023/01/10 13:24:26;;;;;;;;;;;21.90;99.90;;;;;;5025592;28;19996;-75
2023/01/10 13:26:53;;;;;;;;;;;21.90;99.90;;;;;;5025091;28;19909;-72
2023/01/10 13:29:24;;;;;;;;;;;21.90;99.90;;;;;;5018992;28;19920;-73
2023/01/10 13:31:56;;;;;;;;;;;21.90;99.90;;;;;;5018337;28;19910;-76
2023/01/10 13:34:26;;;;;;;;;;;21.80;99.90;;;;;;5018586;28;19914;-70
2023/01/10 13:36:55;;;;;;;;;;;21.80;99.90;;;;;;5018970;28;20430;-70
2023/01/10 13:39:44;;;;;;;;;;;21.80;99.90;;;;;;5018663;28;20306;-75
2023/01/10 13:45:12;;;;;;;;;;;21.80;99.90;;;;;;5021457;28;20378;-73
2023/01/10 13:47:38;;;;;;;;;;;21.80;99.90;;;;;;5025572;28;19916;-70
2023/01/10 13:50:24;;;;;;;;;;;21.80;99.90;;;;;;5028251;28;20348;-72
2023/01/10 13:52:51;;;;;;;;;;;21.90;99.90;;;;;;5018207;28;19965;-74
2023/01/10 13:55:32;;;;;;;;;;;21.90;99.90;;;;;;5017948;28;19909;-70
2023/01/10 13:57:59;;;;;;;;;;;21.90;99.90;;;;;;5018109;28;19920;-76
2023/01/10 14:03:44;;;;;;;;;;;21.90;99.90;;;;;;5017639;28;20016;-76
2023/01/10 14:06:10;;;;;;;;;;;21.80;99.90;;;;;;5017485;28;19910;-76
2023/01/10 14:08:38;;;;;;;;;;;21.90;99.90;;;;;;5017803;28;19914;-75
2023/01/10 14:11:14;;;;;;;;;;;21.80;99.90;;;;;;5016912;28;19944;-74
2023/01/10 14:13:50;;;;;;;;;;;21.80;99.90;;;;;;5017728;28;19932;-76
2023/01/10 14:16:34;;;;;;;;;;;21.80;99.90;;;;;;5017158;28;20279;-73
2023/01/10 14:19:02;;;;;;;;;;;21.80;99.90;;;;;;5017714;28;19913;-76
2023/01/10 14:21:29;;;;;;;;;;;21.80;99.90;;;;;;5018062;28;19914;-76
2023/01/10 14:23:57;;;;;;;;;;;21.80;99.90;;;;;;5017130;28;19917;-73
2023/01/10 14:26:34;;;;;;;;;;;21.80;99.90;;;;;;5017181;28;19916;-69
2023/01/10 14:29:05;;;;;;;;;;;21.80;99.90;;;;;;5016199;28;19909;-71
2023/01/10 14:31:35;;;;;;;;;;;21.80;99.90;;;;;;5016809;28;19975;-76
2023/01/10 14:34:03;;;;;;;;;;;21.80;99.90;;;;;;5016239;28;19909;-71
2023/01/10 14:36:38;;;;;;;;;;;21.80;99.90;;;;;;5016938;28;19918;-74
2023/01/10 14:39:06;;;;;;;;;;;21.80;99.90;;;;;;5016549;28;19918;-73
2023/01/10 14:41:34;;;;;;;;;;;21.80;99.90;;;;;;5017766;28;19917;-76
2023/01/10 14:44:01;;;;;;;;;;;21.80;99.90;;;;;;5016751;28;20384;-77
2023/01/10 14:46:37;;;;;;;;;;;21.80;99.90;;;;;;5016615;28;20284;-76
2023/01/10 14:49:18;;;;;;;;;;;21.80;99.90;;;;;;5017181;28;19909;-73
2023/01/10 14:51:49;;;;;;;;;;;21.80;99.90;;;;;;5020238;28;19910;-74